createdAt,value
2019-05-23T00:01:49.621Z,22.10
2019-05-23T00:04:44.001Z,22.60
2019-05-23T00:07:33.799Z,22.83
2019-05-23T00:10:29.591Z,22.90
2019-05-23T00:13:43.107Z,24.40
2019-05-23T00:16:31.698Z,22.00
2019-05-23T00:19:20.260Z,23.93
2019-05-23T00:22:11.636Z,25.27
2019-05-23T00:25:00.654Z,25.70
2019-05-23T00:27:49.424Z,24.50
2019-05-23T00:30:46.304Z,24.67
2019-05-23T00:33:37.047Z,26.60
2019-05-23T00:36:25.831Z,24.87
2019-05-23T00:39:15.861Z,26.53
2019-05-23T00:42:06.456Z,26.97
2019-05-23T00:44:55.984Z,27.10
2019-05-23T00:47:45.479Z,26.07
2019-05-23T00:50:34.580Z,28.10
2019-05-23T00:53:23.380Z,27.70
2019-05-23T00:56:13.366Z,27.60
2019-05-23T00:59:02.169Z,28.63
2019-05-23T01:01:50.260Z,26.57
2019-05-23T01:04:40.471Z,28.20
2019-05-23T01:07:30.169Z,29.07
2019-05-23T01:10:19.308Z,28.63
2019-05-23T01:13:10.445Z,28.10
2019-05-23T01:16:00.128Z,29.90
2019-05-23T01:18:48.209Z,29.20
2019-05-23T01:21:44.958Z,27.10
2019-05-23T01:24:39.380Z,29.03
2019-05-23T01:27:29.935Z,28.33
2019-05-23T01:30:22.132Z,27.53
2019-05-23T01:33:10.506Z,27.77
2019-05-23T01:35:59.328Z,28.00
2019-05-23T01:38:47.384Z,27.77
2019-05-23T01:41:35.269Z,27.17
2019-05-23T01:44:23.646Z,27.00
2019-05-23T01:47:13.064Z,27.23
2019-05-23T01:50:02.097Z,28.43
2019-05-23T01:52:51.779Z,26.90
2019-05-23T01:55:39.931Z,26.10
2019-05-23T01:58:28.385Z,27.30
2019-05-23T02:01:16.815Z,26.10
2019-05-23T02:04:06.336Z,27.33
2019-05-23T02:06:55.169Z,27.13
2019-05-23T02:09:43.703Z,28.80
2019-05-23T02:12:33.387Z,29.30
2019-05-23T02:15:22.980Z,28.23
2019-05-23T02:18:11.400Z,30.30
2019-05-23T02:21:00.117Z,29.93
2019-05-23T02:23:48.484Z,31.80
2019-05-23T02:26:38.143Z,31.60
2019-05-23T02:29:27.164Z,29.10
2019-05-23T02:32:16.343Z,31.40
2019-05-23T02:35:05.577Z,30.70
2019-05-23T02:38:22.259Z,29.30
2019-05-23T02:41:27.039Z,28.70
2019-05-23T02:44:18.952Z,30.37
2019-05-23T02:47:26.178Z,32.80
2019-05-23T02:50:23.650Z,31.00
2019-05-23T02:53:14.877Z,33.57
2019-05-23T02:56:08.152Z,31.80
2019-05-23T02:59:07.328Z,32.47
2019-05-23T03:02:39.681Z,31.23
2019-05-23T03:05:28.416Z,30.80
2019-05-23T03:08:17.262Z,32.70
2019-05-23T03:11:18.851Z,32.73
2019-05-23T03:14:06.629Z,29.23
2019-05-23T03:16:58.835Z,32.30
2019-05-23T03:19:55.750Z,30.83
2019-05-23T03:22:50.382Z,29.63
2019-05-23T03:26:18.527Z,32.83
2019-05-23T03:29:08.315Z,33.10
2019-05-23T03:32:03.037Z,32.00
2019-05-23T03:34:56.953Z,33.30
2019-05-23T03:37:45.888Z,32.97
2019-05-23T03:40:35.061Z,35.07
2019-05-23T03:43:23.490Z,33.40
2019-05-23T03:46:13.407Z,32.20
2019-05-23T03:49:02.096Z,32.43
2019-05-23T03:51:50.697Z,33.67
2019-05-23T03:54:39.647Z,34.93
2019-05-23T03:57:28.396Z,31.73
2019-05-23T04:00:19.316Z,35.63
2019-05-23T04:03:09.580Z,33.77
2019-05-23T04:05:58.766Z,34.20
2019-05-23T04:08:46.910Z,31.30
2019-05-23T04:11:35.717Z,31.70
2019-05-23T04:14:24.617Z,31.03
2019-05-23T04:17:13.031Z,34.10
2019-05-23T04:20:02.290Z,31.20
2019-05-23T04:22:50.693Z,31.17
2019-05-23T04:25:39.517Z,33.37
2019-05-23T04:28:28.440Z,31.93
2019-05-23T04:31:17.037Z,30.37
2019-05-23T04:34:05.472Z,30.00
2019-05-23T04:36:54.174Z,29.90
2019-05-23T04:39:42.359Z,30.27
2019-05-23T04:42:30.351Z,31.77
2019-05-23T04:45:19.774Z,29.87
2019-05-23T04:48:08.721Z,30.50
2019-05-23T04:50:59.910Z,28.47
2019-05-23T04:53:47.177Z,28.53
2019-05-23T04:56:35.636Z,27.73
2019-05-23T04:59:25.015Z,28.57
2019-05-23T05:02:25.623Z,28.60
2019-05-23T05:05:03.977Z,28.13
2019-05-23T05:07:52.841Z,29.43
2019-05-23T05:10:42.798Z,29.20
2019-05-23T05:13:32.336Z,27.37
2019-05-23T05:16:20.907Z,28.60
2019-05-23T05:19:09.139Z,29.17
2019-05-23T05:21:57.311Z,28.47
2019-05-23T05:24:44.821Z,28.50
2019-05-23T05:27:34.323Z,29.03
2019-05-23T05:30:23.176Z,27.10
2019-05-23T05:33:11.475Z,29.37
2019-05-23T05:35:59.959Z,26.37
2019-05-23T05:38:48.280Z,28.07
2019-05-23T05:41:37.192Z,28.90
2019-05-23T05:44:26.003Z,27.40
2019-05-23T05:47:14.621Z,26.00
2019-05-23T05:50:03.625Z,28.50
2019-05-23T05:52:52.040Z,26.83
2019-05-23T05:55:40.173Z,26.07
2019-05-23T05:58:27.960Z,28.00
2019-05-23T06:01:32.756Z,27.03
2019-05-23T06:04:08.944Z,26.03
2019-05-23T06:07:06.227Z,25.60
2019-05-23T06:09:54.456Z,26.70
2019-05-23T06:12:43.115Z,27.30
2019-05-23T06:15:32.805Z,26.73
2019-05-23T06:18:20.827Z,28.47
2019-05-23T06:21:10.748Z,26.00
2019-05-23T06:23:58.840Z,26.97
2019-05-23T06:26:46.907Z,29.13
2019-05-23T06:29:35.556Z,28.60
2019-05-23T06:32:25.926Z,28.00
2019-05-23T06:35:14.861Z,28.93
2019-05-23T06:38:03.309Z,28.10
2019-05-23T06:40:53.361Z,30.23
2019-05-23T06:43:41.291Z,29.90
2019-05-23T06:46:29.336Z,30.67
2019-05-23T06:49:17.144Z,29.07
2019-05-23T06:52:05.557Z,30.87
2019-05-23T06:54:53.767Z,31.87
2019-05-23T06:57:42.003Z,32.80
2019-05-23T07:00:30.713Z,32.83
2019-05-23T07:03:19.746Z,34.43
2019-05-23T07:06:09.313Z,32.47
2019-05-23T07:08:57.481Z,38.27
2019-05-23T07:11:45.535Z,36.97
2019-05-23T07:14:34.414Z,36.63
2019-05-23T07:17:24.267Z,38.07
2019-05-23T07:20:12.694Z,38.37
2019-05-23T07:23:01.213Z,37.40
2019-05-23T07:25:49.275Z,37.23
2019-05-23T07:28:37.385Z,37.70
2019-05-23T07:31:26.189Z,35.70
2019-05-23T07:34:15.707Z,37.37
2019-05-23T07:37:04.743Z,34.93
2019-05-23T07:39:53.031Z,34.00
2019-05-23T07:42:42.150Z,35.67
2019-05-23T07:45:39.738Z,34.67
2019-05-23T07:48:27.042Z,36.90
2019-05-23T07:51:15.116Z,36.17
2019-05-23T07:54:31.469Z,37.40
2019-05-23T07:57:20.112Z,35.97
2019-05-23T08:00:13.411Z,36.03
2019-05-23T08:03:04.638Z,36.47
2019-05-23T08:05:53.073Z,34.50
2019-05-23T08:08:41.980Z,36.53
2019-05-23T08:11:30.693Z,32.20
2019-05-23T08:14:19.243Z,32.17
2019-05-23T08:17:08.618Z,30.43
2019-05-23T08:19:56.947Z,26.27
2019-05-23T08:22:45.609Z,28.17
2019-05-23T08:25:34.004Z,25.40
2019-05-23T08:28:22.369Z,27.17
2019-05-23T08:31:10.497Z,32.43
2019-05-23T08:33:59.264Z,29.77
2019-05-23T08:36:47.742Z,30.37
2019-05-23T08:39:38.106Z,27.97
2019-05-23T08:42:27.240Z,26.70
2019-05-23T08:45:17.616Z,24.20
2019-05-23T08:48:06.308Z,18.83
2019-05-23T08:50:55.351Z,17.80
2019-05-23T08:53:43.306Z,13.43
2019-05-23T08:56:31.662Z,14.07
2019-05-23T08:59:20.297Z,13.40
2019-05-23T09:02:11.779Z,12.77
2019-05-23T09:05:05.393Z,11.30
2019-05-23T09:07:49.226Z,12.30
2019-05-23T09:10:38.108Z,10.08
2019-05-23T09:13:26.139Z,13.72
2019-05-23T09:16:16.155Z,13.80
2019-05-23T09:19:04.562Z,13.17
2019-05-23T09:21:57.457Z,14.23
2019-05-23T09:24:42.473Z,13.63
2019-05-23T09:27:34.078Z,11.93
2019-05-23T09:30:21.732Z,12.85
2019-05-23T09:33:10.666Z,11.70
2019-05-23T09:35:59.236Z,12.55
2019-05-23T09:38:47.291Z,12.30
2019-05-23T09:41:35.464Z,14.50
2019-05-23T09:44:24.151Z,13.13
2019-05-23T09:47:12.814Z,12.65
2019-05-23T09:50:01.035Z,12.58
2019-05-23T09:52:48.723Z,14.70
2019-05-23T09:55:37.095Z,12.85
2019-05-23T09:58:25.145Z,11.55
2019-05-23T10:01:14.410Z,12.10
2019-05-23T10:04:03.199Z,12.75
2019-05-23T10:06:51.234Z,12.40
2019-05-23T10:09:39.959Z,12.35
2019-05-23T10:12:28.538Z,11.48
2019-05-23T10:15:35.286Z,11.78
2019-05-23T10:18:24.009Z,11.57
2019-05-23T10:21:13.293Z,13.50
2019-05-23T10:24:01.352Z,12.43
2019-05-23T10:26:49.480Z,10.25
2019-05-23T10:29:37.880Z,11.43
2019-05-23T10:32:26.453Z,9.87
2019-05-23T10:35:16.109Z,10.00
2019-05-23T10:38:04.314Z,8.70
2019-05-23T10:40:52.133Z,9.00
2019-05-23T10:43:41.127Z,8.23
2019-05-23T10:46:28.971Z,8.98
2019-05-23T10:49:17.112Z,8.53
2019-05-23T10:52:05.631Z,9.98
2019-05-23T10:54:54.071Z,9.50
2019-05-23T10:57:42.688Z,9.65
2019-05-23T11:00:32.460Z,8.78
2019-05-23T11:03:21.137Z,8.23
2019-05-23T11:06:15.957Z,8.98
2019-05-23T11:09:01.879Z,8.50
2019-05-23T11:11:50.041Z,8.68
2019-05-23T11:14:38.144Z,7.92
2019-05-23T11:17:26.168Z,7.90
2019-05-23T11:20:14.988Z,7.50
2019-05-23T11:23:03.821Z,9.85
2019-05-23T11:25:52.396Z,10.03
2019-05-23T11:28:41.674Z,8.80
2019-05-23T11:31:30.534Z,9.60
2019-05-23T11:34:19.091Z,8.50
2019-05-23T11:37:07.288Z,9.78
2019-05-23T11:39:55.247Z,6.67
2019-05-23T11:42:43.552Z,7.58
2019-05-23T11:45:34.407Z,6.45
2019-05-23T11:48:22.407Z,6.40
2019-05-23T11:51:11.254Z,5.90
2019-05-23T11:54:07.940Z,6.30
2019-05-23T11:56:49.455Z,6.95
2019-05-23T11:59:37.916Z,6.90
2019-05-23T12:02:31.038Z,8.03
2019-05-23T12:05:23.387Z,7.90
2019-05-23T12:08:11.567Z,6.35
2019-05-23T12:10:59.173Z,6.83
2019-05-23T12:13:47.755Z,7.75
2019-05-23T12:16:35.676Z,6.90
2019-05-23T12:19:24.846Z,7.87
2019-05-23T12:22:13.443Z,6.95
2019-05-23T12:25:20.123Z,7.10
2019-05-23T12:27:51.831Z,6.92
2019-05-23T12:30:40.013Z,6.92
2019-05-23T12:33:28.112Z,6.20
2019-05-23T12:36:16.725Z,7.85
2019-05-23T12:39:09.212Z,6.70
2019-05-23T12:41:56.967Z,7.50
2019-05-23T12:44:45.524Z,8.80
2019-05-23T12:47:49.230Z,7.08
2019-05-23T12:50:40.551Z,7.15
2019-05-23T12:53:29.116Z,7.47
2019-05-23T12:56:17.183Z,6.45
2019-05-23T12:59:06.587Z,6.97
2019-05-23T13:01:56.004Z,7.87
2019-05-23T13:04:44.134Z,5.90
2019-05-23T13:07:36.165Z,6.17
2019-05-23T13:10:24.666Z,6.80
2019-05-23T13:13:12.878Z,6.47
2019-05-23T13:16:01.827Z,6.87
2019-05-23T13:18:50.427Z,7.42
2019-05-23T13:21:38.390Z,8.08
2019-05-23T13:24:26.803Z,8.10
2019-05-23T13:27:14.555Z,7.20
2019-05-23T13:30:02.785Z,7.12
2019-05-23T13:32:51.181Z,8.48
2019-05-23T13:35:39.061Z,7.70
2019-05-23T13:38:27.868Z,9.28
2019-05-23T13:41:15.962Z,9.28
2019-05-23T13:44:04.391Z,9.37
2019-05-23T13:46:52.535Z,8.53
2019-05-23T13:49:40.400Z,8.00
2019-05-23T13:52:28.070Z,7.85
2019-05-23T13:55:17.177Z,8.25
2019-05-23T13:58:05.658Z,8.95
2019-05-23T14:00:54.482Z,8.03
2019-05-23T14:03:42.508Z,8.50
2019-05-23T14:06:30.641Z,8.73
2019-05-23T14:09:19.964Z,8.60
2019-05-23T14:12:20.652Z,9.78
2019-05-23T14:14:58.431Z,9.15
2019-05-23T14:17:47.760Z,9.93
2019-05-23T14:20:35.912Z,7.60
2019-05-23T14:23:29.020Z,7.10
2019-05-23T14:26:18.534Z,7.50
2019-05-23T14:29:07.352Z,6.62
2019-05-23T14:32:12.260Z,8.08
2019-05-23T14:35:00.005Z,7.28
2019-05-23T14:37:50.319Z,7.58
2019-05-23T14:40:39.172Z,7.87
2019-05-23T14:43:27.871Z,7.30
2019-05-23T14:46:17.788Z,7.40
2019-05-23T14:49:11.223Z,8.65
2019-05-23T14:52:10.535Z,7.17
2019-05-23T14:55:02.809Z,8.27
2019-05-23T14:57:51.173Z,7.27
2019-05-23T15:00:40.784Z,6.90
2019-05-23T15:03:29.900Z,7.23
2019-05-23T15:06:17.884Z,8.07
2019-05-23T15:09:07.733Z,6.80
2019-05-23T15:11:55.927Z,8.20
2019-05-23T15:14:44.465Z,7.03
2019-05-23T15:17:33.072Z,5.97
2019-05-23T15:20:21.593Z,5.50
2019-05-23T15:23:09.110Z,5.40
2019-05-23T15:25:57.272Z,6.10
2019-05-23T15:28:45.468Z,6.37
2019-05-23T15:31:34.135Z,7.00
2019-05-23T15:34:22.585Z,6.57
2019-05-23T15:37:11.099Z,4.40
2019-05-23T15:39:59.303Z,4.20
2019-05-23T15:42:48.335Z,3.77
2019-05-23T15:45:36.962Z,4.00
2019-05-23T15:48:25.543Z,4.90
2019-05-23T15:51:18.061Z,4.50
2019-05-23T15:54:19.086Z,3.70
2019-05-23T15:57:22.013Z,4.00
2019-05-23T16:00:18.264Z,4.73
2019-05-23T16:03:23.088Z,5.07
2019-05-23T16:06:15.459Z,3.80
2019-05-23T16:09:05.156Z,4.30
2019-05-23T16:11:53.561Z,4.40
2019-05-23T16:14:41.510Z,3.03
2019-05-23T16:17:30.103Z,4.13
2019-05-23T16:20:18.397Z,3.97
2019-05-23T16:23:06.435Z,3.20
2019-05-23T16:25:54.908Z,3.30
2019-05-23T16:28:43.143Z,3.80
2019-05-23T16:31:31.581Z,3.17
2019-05-23T16:34:19.972Z,2.77
2019-05-23T16:37:08.270Z,3.30
2019-05-23T16:39:55.846Z,2.87
2019-05-23T16:42:44.399Z,2.60
2019-05-23T16:45:33.027Z,3.43
2019-05-23T16:48:21.085Z,2.70
2019-05-23T16:51:09.277Z,4.00
2019-05-23T16:53:58.183Z,4.87
2019-05-23T16:56:59.728Z,5.20
2019-05-23T16:59:53.241Z,5.57
2019-05-23T17:02:58.664Z,5.00
2019-05-23T17:05:54.124Z,5.27
2019-05-23T17:09:00.367Z,4.13
2019-05-23T17:12:06.411Z,3.33
2019-05-23T17:15:03.875Z,4.30
2019-05-23T17:18:02.944Z,5.00
2019-05-23T17:21:15.344Z,4.03
2019-05-23T17:24:21.016Z,2.93
2019-05-23T17:27:27.456Z,2.90
2019-05-23T17:30:28.718Z,3.00
2019-05-23T17:33:17.764Z,3.67
2019-05-23T17:36:06.020Z,2.97
2019-05-23T17:38:54.703Z,3.83
2019-05-23T17:41:42.886Z,3.70
2019-05-23T17:44:31.487Z,3.20
2019-05-23T17:47:19.549Z,3.40
2019-05-23T17:50:08.497Z,3.10
2019-05-23T17:52:57.159Z,3.33
2019-05-23T17:55:46.409Z,2.97
2019-05-23T17:58:35.541Z,2.93
2019-05-23T18:01:25.201Z,2.97
2019-05-23T18:04:14.987Z,2.77
2019-05-23T18:07:02.670Z,2.93
2019-05-23T18:09:51.859Z,2.50
2019-05-23T18:12:39.916Z,4.07
2019-05-23T18:15:29.566Z,2.40
2019-05-23T18:18:18.604Z,2.50
2019-05-23T18:21:08.346Z,2.70
2019-05-23T18:23:56.843Z,2.73
2019-05-23T18:26:44.659Z,2.77
2019-05-23T18:29:33.558Z,3.17
2019-05-23T18:32:24.805Z,3.10
2019-05-23T18:35:14.180Z,2.90
2019-05-23T18:38:02.717Z,2.73
2019-05-23T18:41:02.369Z,3.03
2019-05-23T18:43:43.098Z,2.93
2019-05-23T18:46:39.521Z,2.93
2019-05-23T18:49:28.238Z,2.53
2019-05-23T18:52:16.708Z,3.10
2019-05-23T18:55:05.587Z,3.43
2019-05-23T18:57:53.476Z,2.97
2019-05-23T19:01:17.525Z,3.23
2019-05-23T19:04:06.082Z,3.07
2019-05-23T19:06:54.779Z,2.63
2019-05-23T19:09:43.688Z,3.60
2019-05-23T19:12:31.927Z,3.50
2019-05-23T19:15:20.074Z,3.97
2019-05-23T19:18:08.680Z,3.33
2019-05-23T19:20:57.859Z,3.43
2019-05-23T19:23:46.940Z,4.37
2019-05-23T19:26:35.815Z,4.60
2019-05-23T19:29:24.631Z,4.87
2019-05-23T19:32:13.623Z,6.53
2019-05-23T19:35:01.315Z,5.90
2019-05-23T19:37:48.925Z,5.40
2019-05-23T19:40:37.735Z,4.63
2019-05-23T19:43:26.135Z,4.90
2019-05-23T19:46:14.743Z,4.57
2019-05-23T19:49:03.721Z,5.83
2019-05-23T19:51:52.306Z,6.30
2019-05-23T19:54:41.468Z,5.73
2019-05-23T19:57:31.169Z,6.17
2019-05-23T20:00:22.849Z,6.60
2019-05-23T20:03:11.036Z,6.07
2019-05-23T20:05:59.653Z,6.97
2019-05-23T20:08:47.995Z,6.73
2019-05-23T20:11:36.054Z,7.67
2019-05-23T20:14:25.212Z,6.17
2019-05-23T20:17:13.439Z,6.30
2019-05-23T20:20:02.418Z,6.03
2019-05-23T20:22:50.731Z,6.77
2019-05-23T20:25:39.395Z,8.80
2019-05-23T20:28:27.473Z,8.50
2019-05-23T20:31:16.295Z,7.40
2019-05-23T20:34:07.131Z,7.60
2019-05-23T20:36:54.261Z,6.57
2019-05-23T20:39:42.335Z,6.13
2019-05-23T20:42:30.855Z,6.40
2019-05-23T20:45:18.578Z,6.07
2019-05-23T20:48:07.432Z,7.13
2019-05-23T20:50:55.704Z,6.87
2019-05-23T20:53:44.076Z,6.77
2019-05-23T20:56:32.603Z,6.53
2019-05-23T20:59:20.411Z,7.23
2019-05-23T21:02:08.768Z,7.60
2019-05-23T21:04:57.671Z,6.90
2019-05-23T21:07:45.994Z,6.67
2019-05-23T21:10:48.751Z,6.27
2019-05-23T21:13:37.187Z,6.90
2019-05-23T21:16:25.651Z,6.77
2019-05-23T21:19:14.057Z,5.90
2019-05-23T21:22:02.318Z,6.20
2019-05-23T21:24:50.125Z,5.80
2019-05-23T21:27:38.669Z,5.43
2019-05-23T21:30:28.070Z,6.57
2019-05-23T21:33:17.176Z,5.93
2019-05-23T21:36:05.411Z,6.10
2019-05-23T21:38:53.859Z,5.77
2019-05-23T21:41:42.352Z,6.10
2019-05-23T21:44:30.152Z,6.43
2019-05-23T21:47:18.198Z,5.60
2019-05-23T21:50:05.971Z,5.63
2019-05-23T21:52:54.355Z,7.57
2019-05-23T21:55:43.344Z,7.37
2019-05-23T21:58:31.703Z,6.40
2019-05-23T22:01:49.363Z,6.53
2019-05-23T22:04:49.036Z,6.17
2019-05-23T22:07:37.226Z,6.47
2019-05-23T22:10:24.993Z,6.20
2019-05-23T22:13:12.985Z,6.07
2019-05-23T22:16:01.843Z,6.87
2019-05-23T22:18:49.623Z,6.13
2019-05-23T22:21:37.519Z,7.40
2019-05-23T22:24:25.955Z,6.87
2019-05-23T22:27:14.704Z,6.90
2019-05-23T22:30:03.444Z,7.60
2019-05-23T22:32:51.539Z,6.97
2019-05-23T22:35:40.063Z,6.60
2019-05-23T22:38:28.584Z,6.60
2019-05-23T22:41:16.880Z,6.47
2019-05-23T22:44:06.707Z,6.47
2019-05-23T22:46:54.971Z,7.17
2019-05-23T22:49:43.155Z,6.97
2019-05-23T22:52:31.460Z,7.00
2019-05-23T22:55:19.875Z,7.13
2019-05-23T22:58:08.665Z,6.63
2019-05-23T23:00:56.598Z,8.10
2019-05-23T23:03:44.807Z,7.10
2019-05-23T23:06:33.616Z,7.40
2019-05-23T23:09:22.231Z,7.67
2019-05-23T23:12:10.567Z,7.20
2019-05-23T23:14:59.021Z,7.03
2019-05-23T23:17:47.223Z,7.87
2019-05-23T23:20:36.053Z,8.00
2019-05-23T23:23:24.413Z,8.57
2019-05-23T23:26:12.661Z,7.33
2019-05-23T23:29:01.394Z,7.80
2019-05-23T23:31:50.036Z,8.30
2019-05-23T23:34:38.048Z,7.30
2019-05-23T23:37:26.612Z,7.87
2019-05-23T23:40:14.425Z,7.50
2019-05-23T23:43:03.084Z,7.90
2019-05-23T23:46:09.381Z,8.10
2019-05-23T23:49:15.148Z,7.50
2019-05-23T23:52:21.262Z,8.93
2019-05-23T23:55:27.268Z,7.83
2019-05-23T23:58:14.532Z,7.50
